createdAt,value
2019-02-02T00:01:49.339Z,76.67
2019-02-02T00:04:17.869Z,82.80
2019-02-02T00:06:46.745Z,85.40
2019-02-02T00:09:15.320Z,95.40
2019-02-02T00:11:43.841Z,78.77
2019-02-02T00:14:12.714Z,91.10
2019-02-02T00:16:41.249Z,85.93
2019-02-02T00:19:09.799Z,91.47
2019-02-02T00:21:38.298Z,85.30
2019-02-02T00:24:06.888Z,87.83
2019-02-02T00:26:35.627Z,88.13
2019-02-02T00:31:58.627Z,94.23
2019-02-02T00:34:27.084Z,85.10
2019-02-02T00:36:55.753Z,97.80
2019-02-02T00:39:24.362Z,95.07
2019-02-02T00:41:53.255Z,85.93
2019-02-02T00:44:22.147Z,89.30
2019-02-02T00:46:50.772Z,97.10
2019-02-02T00:49:19.309Z,86.97
2019-02-02T00:51:47.907Z,81.73
2019-02-02T00:54:16.454Z,88.83
2019-02-02T00:56:45.007Z,87.53
2019-02-02T00:59:13.520Z,92.93
2019-02-02T01:01:42.008Z,89.07
2019-02-02T01:04:10.534Z,97.30
2019-02-02T01:06:39.021Z,92.90
2019-02-02T01:09:47.492Z,98.20
2019-02-02T01:12:16.049Z,104.67
2019-02-02T01:14:44.527Z,113.20
2019-02-02T01:17:13.037Z,99.13
2019-02-02T01:19:41.473Z,99.00
2019-02-02T01:22:10.086Z,109.30
2019-02-02T01:24:38.627Z,104.30
2019-02-02T01:27:07.172Z,97.07
2019-02-02T01:29:35.768Z,119.93
2019-02-02T01:32:04.326Z,98.90
2019-02-02T01:34:32.980Z,111.30
2019-02-02T01:37:01.507Z,108.17
2019-02-02T01:39:30.123Z,105.60
2019-02-02T01:41:58.608Z,106.97
2019-02-02T01:44:27.166Z,112.93
2019-02-02T01:46:55.673Z,113.30
2019-02-02T01:49:24.254Z,125.97
2019-02-02T01:51:52.704Z,103.77
2019-02-02T01:54:21.269Z,128.90
2019-02-02T01:56:49.725Z,116.47
2019-02-02T01:59:18.288Z,104.50
2019-02-02T02:01:46.855Z,127.13
2019-02-02T02:04:15.407Z,129.80
2019-02-02T02:06:43.903Z,128.67
2019-02-02T02:09:12.434Z,142.47
2019-02-02T02:11:40.969Z,124.70
2019-02-02T02:14:09.585Z,138.20
2019-02-02T02:16:38.101Z,120.53
2019-02-02T02:19:06.665Z,132.20
2019-02-02T02:21:35.177Z,148.00
2019-02-02T02:24:03.717Z,129.03
2019-02-02T02:26:32.290Z,134.27
2019-02-02T02:29:00.871Z,146.87
2019-02-02T02:31:29.430Z,131.87
2019-02-02T02:33:57.912Z,144.73
2019-02-02T02:36:26.547Z,132.57
2019-02-02T02:38:55.025Z,146.43
2019-02-02T02:41:23.826Z,147.97
2019-02-02T02:43:52.822Z,145.63
2019-02-02T02:46:21.818Z,125.30
2019-02-02T02:48:50.469Z,140.50
2019-02-02T02:51:19.009Z,133.97
2019-02-02T02:53:47.544Z,135.47
2019-02-02T02:56:16.235Z,152.67
2019-02-02T02:58:45.053Z,129.27
2019-02-02T03:01:13.565Z,145.87
2019-02-02T03:03:42.068Z,161.77
2019-02-02T03:06:10.642Z,131.57
2019-02-02T03:08:39.212Z,151.50
2019-02-02T03:11:07.799Z,132.20
2019-02-02T03:13:36.766Z,153.70
2019-02-02T03:16:05.336Z,122.37
2019-02-02T03:18:33.896Z,138.53
2019-02-02T03:21:02.877Z,141.93
2019-02-02T03:23:31.506Z,132.10
2019-02-02T03:26:00.050Z,136.50
2019-02-02T03:28:28.675Z,149.80
2019-02-02T03:30:57.195Z,157.70
2019-02-02T03:33:25.713Z,142.80
2019-02-02T03:35:54.524Z,133.80
2019-02-02T03:38:23.058Z,149.30
2019-02-02T03:40:52.225Z,132.93
2019-02-02T03:43:20.760Z,141.10
2019-02-02T03:45:49.251Z,139.63
2019-02-02T03:48:17.826Z,149.07
2019-02-02T03:50:46.389Z,139.73
2019-02-02T03:53:14.903Z,138.40
2019-02-02T03:55:43.516Z,133.83
2019-02-02T03:58:11.986Z,155.87
2019-02-02T04:00:40.898Z,141.40
2019-02-02T04:03:09.624Z,141.07
2019-02-02T04:05:38.159Z,149.43
2019-02-02T04:08:06.704Z,149.10
2019-02-02T04:10:35.296Z,148.77
2019-02-02T04:13:03.912Z,162.73
2019-02-02T04:15:32.589Z,144.43
2019-02-02T04:18:01.203Z,137.20
2019-02-02T04:20:29.861Z,152.07
2019-02-02T04:22:58.422Z,147.67
2019-02-02T04:25:27.277Z,142.80
2019-02-02T04:27:55.783Z,142.97
2019-02-02T04:31:04.274Z,138.07
2019-02-02T04:33:32.843Z,160.97
2019-02-02T04:36:01.740Z,147.90
2019-02-02T04:38:30.223Z,162.57
2019-02-02T04:40:58.824Z,148.07
2019-02-02T04:43:27.225Z,154.17
2019-02-02T04:45:55.809Z,150.90
2019-02-02T04:48:24.399Z,138.83
2019-02-02T04:50:52.958Z,137.27
2019-02-02T04:53:21.611Z,166.67
2019-02-02T04:55:50.508Z,165.47
2019-02-02T04:58:19.157Z,167.00
2019-02-02T05:00:47.985Z,153.00
2019-02-02T05:03:16.578Z,156.50
2019-02-02T05:05:45.111Z,143.50
2019-02-02T05:08:13.616Z,138.03
2019-02-02T05:10:42.236Z,153.57
2019-02-02T05:13:10.743Z,135.70
2019-02-02T05:15:39.331Z,146.93
2019-02-02T05:18:08.286Z,160.10
2019-02-02T05:20:36.825Z,144.80
2019-02-02T05:23:05.460Z,145.00
2019-02-02T05:25:33.962Z,148.90
2019-02-02T05:28:02.557Z,148.43
2019-02-02T05:30:50.427Z,126.23
2019-02-02T05:33:18.969Z,134.67
2019-02-02T05:35:47.509Z,143.43
2019-02-02T05:38:16.038Z,154.50
2019-02-02T05:40:44.596Z,153.50
2019-02-02T05:43:13.072Z,140.80
2019-02-02T05:45:41.591Z,165.83
2019-02-02T05:48:10.141Z,140.53
2019-02-02T05:50:38.953Z,138.67
2019-02-02T05:53:49.129Z,145.33
2019-02-02T05:56:05.030Z,152.10
2019-02-02T05:58:33.532Z,155.90
2019-02-02T06:01:02.145Z,145.50
2019-02-02T06:03:30.683Z,139.93
2019-02-02T06:05:59.155Z,137.27
2019-02-02T06:08:27.708Z,155.97
2019-02-02T06:10:56.297Z,150.33
2019-02-02T06:13:24.883Z,169.40
2019-02-02T06:15:53.580Z,140.53
2019-02-02T06:18:22.064Z,155.73
2019-02-02T06:20:50.524Z,144.87
2019-02-02T06:23:19.127Z,139.10
2019-02-02T06:25:47.662Z,144.77
2019-02-02T06:28:16.315Z,149.93
2019-02-02T06:30:44.935Z,139.60
2019-02-02T06:33:13.400Z,155.93
2019-02-02T06:35:42.155Z,135.07
2019-02-02T06:38:10.774Z,155.53
2019-02-02T06:40:39.280Z,148.10
2019-02-02T06:43:08.207Z,153.23
2019-02-02T06:46:16.676Z,136.77
2019-02-02T06:48:45.208Z,143.83
2019-02-02T06:51:13.742Z,151.57
2019-02-02T06:53:42.323Z,144.10
2019-02-02T06:56:10.890Z,155.00
2019-02-02T06:58:39.748Z,143.17
2019-02-02T07:01:08.288Z,147.93
2019-02-02T07:03:36.861Z,156.27
2019-02-02T07:06:05.405Z,147.73
2019-02-02T07:08:33.951Z,140.07
2019-02-02T07:11:02.495Z,162.73
2019-02-02T07:13:31.101Z,144.13
2019-02-02T07:15:59.663Z,152.40
2019-02-02T07:18:28.155Z,148.87
2019-02-02T07:20:56.672Z,154.53
2019-02-02T07:23:25.484Z,150.77
2019-02-02T07:25:54.048Z,147.93
2019-02-02T07:28:22.501Z,151.43
2019-02-02T07:30:51.222Z,154.33
2019-02-02T07:33:19.760Z,152.27
2019-02-02T07:35:48.259Z,146.23
2019-02-02T07:38:16.777Z,139.60
2019-02-02T07:40:45.361Z,156.10
2019-02-02T07:43:13.951Z,160.30
2019-02-02T07:45:42.544Z,162.67
2019-02-02T07:48:11.644Z,156.33
2019-02-02T07:50:40.544Z,147.07
2019-02-02T07:53:09.127Z,140.50
2019-02-02T07:55:37.775Z,155.67
2019-02-02T07:58:06.373Z,158.97
2019-02-02T08:01:15.109Z,152.90
2019-02-02T08:03:43.751Z,139.87
2019-02-02T08:06:12.271Z,164.70
2019-02-02T08:08:40.858Z,154.03
2019-02-02T08:11:09.355Z,165.67
2019-02-02T08:13:37.952Z,141.53
2019-02-02T08:16:06.687Z,151.40
2019-02-02T08:18:35.246Z,160.20
2019-02-02T08:21:03.861Z,147.33
2019-02-02T08:23:32.391Z,148.37
2019-02-02T08:26:01.033Z,158.07
2019-02-02T08:28:29.567Z,143.83
2019-02-02T08:30:58.197Z,149.77
2019-02-02T08:33:26.821Z,152.77
2019-02-02T08:35:55.313Z,152.60
2019-02-02T08:38:23.804Z,151.90
2019-02-02T08:40:52.242Z,152.33
2019-02-02T08:43:20.786Z,155.67
2019-02-02T08:45:49.390Z,166.43
2019-02-02T08:48:17.928Z,157.90
2019-02-02T08:50:46.565Z,156.70
2019-02-02T08:53:15.215Z,145.03
2019-02-02T08:55:44.418Z,151.67
2019-02-02T08:58:13.144Z,159.27
2019-02-02T09:00:43.247Z,153.70
2019-02-02T09:03:52.713Z,163.30
2019-02-02T09:06:22.411Z,156.03
2019-02-02T09:08:51.051Z,146.77
2019-02-02T09:11:19.558Z,157.37
2019-02-02T09:13:48.084Z,152.80
2019-02-02T09:16:16.739Z,164.90
2019-02-02T09:18:45.287Z,163.57
2019-02-02T09:21:13.904Z,160.00
2019-02-02T09:23:42.478Z,135.63
2019-02-02T09:26:10.946Z,152.43
2019-02-02T09:28:39.505Z,156.03
2019-02-02T09:31:15.492Z,147.03
2019-02-02T09:33:38.456Z,161.50
2019-02-02T09:36:06.971Z,180.87
2019-02-02T09:38:35.523Z,153.27
2019-02-02T09:41:04.585Z,140.63
2019-02-02T09:43:33.147Z,172.07
2019-02-02T09:46:04.609Z,140.67
2019-02-02T09:48:31.890Z,153.63
2019-02-02T09:51:00.448Z,160.90
2019-02-02T09:53:29.001Z,159.23
2019-02-02T09:55:57.472Z,146.67
2019-02-02T09:58:26.106Z,155.53
2019-02-02T10:00:54.656Z,175.90
2019-02-02T10:03:23.135Z,166.93
2019-02-02T10:05:51.651Z,141.13
2019-02-02T10:08:20.137Z,165.23
2019-02-02T10:10:48.591Z,168.60
2019-02-02T10:13:17.138Z,153.13
2019-02-02T10:15:45.698Z,160.47
2019-02-02T10:18:14.223Z,163.50
2019-02-02T10:20:42.783Z,151.93
2019-02-02T10:23:11.308Z,178.40
2019-02-02T10:25:39.848Z,166.57
2019-02-02T10:28:08.460Z,168.07
2019-02-02T10:31:17.214Z,149.77
2019-02-02T10:33:45.941Z,155.43
2019-02-02T10:36:14.512Z,168.57
2019-02-02T10:38:43.036Z,169.70
2019-02-02T10:41:11.599Z,160.50
2019-02-02T10:43:40.500Z,170.33
2019-02-02T10:46:10.795Z,161.57
2019-02-02T10:48:39.306Z,173.13
2019-02-02T10:51:07.802Z,168.67
2019-02-02T10:53:36.381Z,185.33
2019-02-02T10:56:04.937Z,171.00
2019-02-02T10:58:33.580Z,181.33
2019-02-02T11:01:02.234Z,171.03
2019-02-02T11:03:30.869Z,176.83
2019-02-02T11:05:59.353Z,177.80
2019-02-02T11:08:27.981Z,180.97
2019-02-02T11:10:56.794Z,167.90
2019-02-02T11:13:25.466Z,174.70
2019-02-02T11:15:54.353Z,193.33
2019-02-02T11:19:03.801Z,188.97
2019-02-02T11:21:32.301Z,175.57
2019-02-02T11:24:00.894Z,180.00
2019-02-02T11:26:29.450Z,164.53
2019-02-02T11:28:58.308Z,188.70
2019-02-02T11:31:26.886Z,173.30
2019-02-02T11:33:55.432Z,169.87
2019-02-02T11:36:23.940Z,199.60
2019-02-02T11:42:00.568Z,177.00
2019-02-02T11:44:29.064Z,185.40
2019-02-02T11:46:57.636Z,189.60
2019-02-02T11:52:34.288Z,169.30
2019-02-02T11:55:03.232Z,188.97
2019-02-02T11:57:31.876Z,203.63
2019-02-02T12:00:00.340Z,170.77
2019-02-02T12:02:28.906Z,175.73
2019-02-02T12:04:57.435Z,186.53
2019-02-02T12:07:25.919Z,184.40
2019-02-02T12:09:54.932Z,185.00
2019-02-02T12:12:23.512Z,191.40
2019-02-02T12:14:52.146Z,192.80
2019-02-02T12:17:20.688Z,209.30
2019-02-02T12:19:49.160Z,190.27
2019-02-02T12:22:17.658Z,177.63
2019-02-02T12:24:46.114Z,186.90
2019-02-02T12:27:14.648Z,193.23
2019-02-02T12:29:43.303Z,210.30
2019-02-02T12:32:11.734Z,204.43
2019-02-02T12:34:40.210Z,208.53
2019-02-02T12:37:08.773Z,195.10
2019-02-02T12:39:37.254Z,202.33
2019-02-02T12:42:05.881Z,191.53
2019-02-02T12:44:34.318Z,211.80
2019-02-02T12:47:02.828Z,200.27
2019-02-02T12:49:31.308Z,201.43
2019-02-02T12:51:59.866Z,194.73
2019-02-02T12:54:28.743Z,193.13
2019-02-02T12:56:57.332Z,210.00
2019-02-02T12:59:25.817Z,204.67
2019-02-02T13:01:54.466Z,205.30
2019-02-02T13:04:22.945Z,210.97
2019-02-02T13:06:52.254Z,217.57
2019-02-02T13:09:21.742Z,192.20
2019-02-02T13:11:50.329Z,203.63
2019-02-02T13:14:18.902Z,200.60
2019-02-02T13:16:50.058Z,211.27
2019-02-02T13:19:17.613Z,199.83
2019-02-02T13:21:46.207Z,208.67
2019-02-02T13:24:14.675Z,188.00
2019-02-02T13:26:43.293Z,220.50
2019-02-02T13:29:11.867Z,201.10
2019-02-02T13:31:40.641Z,184.87
2019-02-02T13:34:09.216Z,196.80
2019-02-02T13:36:37.856Z,184.83
2019-02-02T13:39:46.305Z,184.37
2019-02-02T13:42:14.895Z,161.50
2019-02-02T13:44:43.356Z,171.37
2019-02-02T13:47:11.912Z,146.83
2019-02-02T13:49:40.483Z,155.73
2019-02-02T13:52:09.091Z,140.83
2019-02-02T13:54:37.578Z,149.57
2019-02-02T13:57:06.108Z,134.77
2019-02-02T13:59:34.585Z,142.67
2019-02-02T14:02:03.152Z,128.03
2019-02-02T14:04:31.795Z,133.10
2019-02-02T14:07:00.272Z,122.93
2019-02-02T14:09:28.843Z,142.70
2019-02-02T14:11:57.383Z,126.87
2019-02-02T14:14:25.857Z,125.47
2019-02-02T14:16:54.342Z,116.80
2019-02-02T14:19:22.848Z,117.70
2019-02-02T14:21:51.498Z,146.13
2019-02-02T14:24:20.029Z,116.17
2019-02-02T14:26:48.750Z,122.83
2019-02-02T14:29:17.295Z,114.57
2019-02-02T14:31:45.746Z,117.43
2019-02-02T14:34:14.249Z,114.47
2019-02-02T14:36:42.978Z,95.40
2019-02-02T14:39:11.709Z,100.90
2019-02-02T14:41:40.360Z,102.33
2019-02-02T14:44:49.380Z,102.40
2019-02-02T14:53:05.969Z,107.37
2019-02-02T14:55:34.950Z,112.53
2019-02-02T14:58:03.493Z,89.33
2019-02-02T15:00:32.053Z,110.23
2019-02-02T15:03:03.240Z,94.37
2019-02-02T15:05:42.120Z,102.33
2019-02-02T15:08:01.386Z,91.13
2019-02-02T15:10:30.253Z,104.73
2019-02-02T15:15:56.427Z,109.87
2019-02-02T15:18:25.112Z,131.80
2019-02-02T15:20:53.649Z,116.33
2019-02-02T15:23:41.832Z,124.67
2019-02-02T15:25:54.445Z,151.97
2019-02-02T15:28:23.964Z,116.70
2019-02-02T15:33:50.045Z,122.13
2019-02-02T15:36:19.536Z,134.73
2019-02-02T15:38:48.165Z,116.10
2019-02-02T15:41:16.843Z,144.67
2019-02-02T15:43:45.371Z,132.10
2019-02-02T15:46:13.854Z,137.60
2019-02-02T15:48:43.141Z,121.20
2019-02-02T15:51:11.774Z,136.77
2019-02-02T15:53:40.325Z,127.40
2019-02-02T15:56:08.889Z,139.53
2019-02-02T15:58:37.521Z,131.63
2019-02-02T16:01:07.153Z,140.73
2019-02-02T16:03:35.905Z,127.83
2019-02-02T16:06:04.564Z,136.67
2019-02-02T16:08:33.148Z,123.13
2019-02-02T16:11:42.427Z,123.67
2019-02-02T16:14:51.078Z,118.90
2019-02-02T16:20:48.588Z,118.73
2019-02-02T16:23:17.284Z,124.13
2019-02-02T16:25:46.166Z,153.47
2019-02-02T16:28:14.999Z,129.97
2019-02-02T16:30:43.607Z,135.23
2019-02-02T16:33:12.204Z,124.63
2019-02-02T16:35:40.795Z,125.73
2019-02-02T16:38:09.484Z,131.30
2019-02-02T16:40:37.970Z,116.77
2019-02-02T16:43:46.387Z,108.97
2019-02-02T16:46:14.946Z,120.27
2019-02-02T16:48:43.529Z,111.57
2019-02-02T16:51:12.063Z,114.00
2019-02-02T16:53:40.676Z,112.53
2019-02-02T16:56:09.257Z,120.47
2019-02-02T16:58:37.811Z,116.63
2019-02-02T17:01:06.336Z,119.87
2019-02-02T17:03:35.322Z,123.90
2019-02-02T17:06:03.885Z,122.80
2019-02-02T17:08:32.761Z,115.30
2019-02-02T17:11:01.295Z,125.33
2019-02-02T17:13:29.736Z,115.93
2019-02-02T17:15:58.296Z,126.10
2019-02-02T17:18:26.839Z,117.47
2019-02-02T17:20:55.479Z,122.17
2019-02-02T17:23:23.978Z,122.07
2019-02-02T17:25:52.959Z,135.73
2019-02-02T17:28:21.868Z,117.40
2019-02-02T17:30:50.435Z,131.27
2019-02-02T17:33:18.970Z,131.07
2019-02-02T17:35:47.516Z,134.40
2019-02-02T17:38:16.077Z,129.03
2019-02-02T17:40:44.887Z,123.30
2019-02-02T17:43:13.453Z,134.27
2019-02-02T17:45:42.103Z,122.93
2019-02-02T17:48:50.608Z,123.50
2019-02-02T17:51:19.171Z,133.27
2019-02-02T17:53:47.625Z,112.97
2019-02-02T17:56:16.518Z,123.93
2019-02-02T17:58:45.170Z,116.23
2019-02-02T18:01:13.742Z,118.47
2019-02-02T18:03:42.165Z,109.50
2019-02-02T18:06:10.744Z,120.17
2019-02-02T18:08:39.411Z,103.37
2019-02-02T18:11:07.892Z,108.50
2019-02-02T18:13:36.510Z,121.43
2019-02-02T18:16:05.139Z,115.77
2019-02-02T18:18:53.343Z,109.27
2019-02-02T18:21:21.898Z,122.17
2019-02-02T18:23:50.605Z,115.43
2019-02-02T18:26:19.205Z,106.00
2019-02-02T18:28:47.792Z,111.00
2019-02-02T18:31:16.295Z,95.83
2019-02-02T18:33:44.848Z,103.57
2019-02-02T18:36:13.403Z,95.67
2019-02-02T18:38:41.965Z,100.30
2019-02-02T18:41:10.584Z,100.37
2019-02-02T18:43:39.258Z,92.07
2019-02-02T18:46:07.812Z,99.13
2019-02-02T18:48:36.421Z,89.47
2019-02-02T18:51:05.004Z,91.43
2019-02-02T18:53:33.567Z,95.03
2019-02-02T18:56:02.101Z,102.07
2019-02-02T18:58:30.649Z,101.63
2019-02-02T19:00:59.215Z,92.63
2019-02-02T19:03:27.790Z,99.90
2019-02-02T19:05:56.295Z,98.27
2019-02-02T19:08:24.836Z,96.20
2019-02-02T19:10:53.400Z,91.20
2019-02-02T19:13:21.835Z,93.87
2019-02-02T19:15:50.394Z,93.80
2019-02-02T19:18:18.897Z,98.33
2019-02-02T19:20:47.420Z,112.07
2019-02-02T19:23:24.580Z,99.27
2019-02-02T19:25:46.242Z,94.53
2019-02-02T19:28:14.705Z,96.70
2019-02-02T19:30:43.284Z,97.87
2019-02-02T19:33:12.218Z,102.93
2019-02-02T19:35:40.699Z,103.30
2019-02-02T19:38:09.350Z,102.10
2019-02-02T19:40:38.212Z,103.10
2019-02-02T19:43:07.280Z,102.13
2019-02-02T19:45:35.805Z,98.87
2019-02-02T19:48:04.530Z,96.17
2019-02-02T19:50:32.951Z,98.03
2019-02-02T19:53:01.747Z,99.93
2019-02-02T19:55:37.523Z,96.97
2019-02-02T19:58:06.421Z,89.57
2019-02-02T20:01:14.869Z,89.73
2019-02-02T20:03:43.345Z,84.30
2019-02-02T20:06:11.927Z,97.70
2019-02-02T20:08:40.943Z,100.17
2019-02-02T20:11:09.587Z,109.67
2019-02-02T20:13:38.078Z,103.97
2019-02-02T20:16:06.794Z,94.30
2019-02-02T20:18:35.355Z,99.87
2019-02-02T20:21:04.280Z,110.70
2019-02-02T20:23:36.375Z,101.37
2019-02-02T20:26:03.166Z,105.83
2019-02-02T20:28:31.645Z,100.50
2019-02-02T20:31:00.264Z,101.70
2019-02-02T20:33:28.888Z,111.97
2019-02-02T20:35:57.483Z,110.80
2019-02-02T20:38:26.073Z,118.13
2019-02-02T20:40:54.597Z,111.77
2019-02-02T20:43:23.096Z,117.23
2019-02-02T20:45:51.662Z,109.80
2019-02-02T20:48:20.244Z,122.90
2019-02-02T20:50:48.801Z,119.30
2019-02-02T20:53:19.069Z,122.40
2019-02-02T20:55:47.673Z,123.80
2019-02-02T20:58:16.231Z,125.27
2019-02-02T21:00:44.822Z,123.47
2019-02-02T21:03:13.463Z,126.43
2019-02-02T21:05:52.062Z,122.37
2019-02-02T21:08:12.237Z,129.83
2019-02-02T21:10:40.864Z,129.63
2019-02-02T21:13:09.791Z,139.57
2019-02-02T21:15:38.393Z,133.73
2019-02-02T21:18:07.016Z,125.33
2019-02-02T21:20:37.316Z,125.53
2019-02-02T21:23:06.161Z,125.90
2019-02-02T21:25:34.808Z,133.83
2019-02-02T21:28:03.446Z,133.60
2019-02-02T21:31:11.912Z,137.60
2019-02-02T21:33:40.365Z,119.30
2019-02-02T21:36:08.901Z,118.37
2019-02-02T21:38:37.490Z,116.57
2019-02-02T21:41:46.157Z,110.17
2019-02-02T21:44:14.693Z,120.70
2019-02-02T21:46:43.324Z,113.63
2019-02-02T21:49:11.883Z,114.13
2019-02-02T21:51:40.413Z,108.93
2019-02-02T21:54:09.015Z,124.17
2019-02-02T21:56:37.529Z,110.17
2019-02-02T22:01:41.263Z,88.83
2019-02-02T22:04:09.938Z,91.00
2019-02-02T22:06:38.527Z,65.87
2019-02-02T22:09:47.302Z,63.43
2019-02-02T22:12:15.980Z,70.50
2019-02-02T22:14:44.546Z,62.33
2019-02-02T22:17:13.162Z,60.10
2019-02-02T22:19:41.742Z,57.07
2019-02-02T22:22:10.414Z,62.40
2019-02-02T22:24:39.047Z,48.30
2019-02-02T22:27:07.653Z,41.50
2019-02-02T22:29:36.260Z,37.13
2019-02-02T22:32:04.797Z,39.03
2019-02-02T22:34:35.164Z,44.50
2019-02-02T22:37:04.060Z,43.73
2019-02-02T22:39:32.673Z,42.67
2019-02-02T22:44:57.702Z,44.20
2019-02-02T22:47:41.133Z,38.00
2019-02-02T22:49:57.192Z,36.63
2019-02-02T22:58:40.477Z,36.07
2019-02-02T23:07:38.046Z,35.20
2019-02-02T23:10:45.242Z,32.47
2019-02-02T23:13:52.515Z,46.17
2019-02-02T23:16:40.348Z,35.10
2019-02-02T23:19:08.790Z,48.50
2019-02-02T23:21:37.754Z,50.53
2019-02-02T23:24:06.263Z,48.17
2019-02-02T23:26:34.865Z,49.60
2019-02-02T23:29:03.495Z,44.30
2019-02-02T23:31:31.984Z,50.90
2019-02-02T23:34:00.541Z,48.63
2019-02-02T23:36:29.075Z,46.47
2019-02-02T23:38:57.712Z,41.30
2019-02-02T23:41:26.262Z,43.30
2019-02-02T23:43:55.079Z,37.63
2019-02-02T23:46:23.648Z,42.27
2019-02-02T23:48:52.497Z,40.40
2019-02-02T23:51:21.025Z,40.57
2019-02-02T23:53:49.604Z,37.53
2019-02-02T23:56:18.134Z,45.40
2019-02-02T23:58:46.844Z,51.37
